sensor_id;sensor_type;location;lat;lon;timestamp;temperature;humidity
6355;DHT22;3210;48.708;9.030;2023-03-26T00:01:11;7.00;99.90
6355;DHT22;3210;48.708;9.030;2023-03-26T00:03:41;7.00;99.90
6355;DHT22;3210;48.708;9.030;2023-03-26T00:06:11;7.00;99.90
6355;DHT22;3210;48.708;9.030;2023-03-26T00:08:39;7.00;99.90
6355;DHT22;3210;48.708;9.030;2023-03-26T00:11:08;7.10;99.90
6355;DHT22;3210;48.708;9.030;2023-03-26T00:13:35;7.10;99.90
6355;DHT22;3210;48.708;9.030;2023-03-26T00:16:02;7.10;99.90
6355;DHT22;3210;48.708;9.030;2023-03-26T00:18:30;7.10;99.90
6355;DHT22;3210;48.708;9.030;2023-03-26T00:21:01;7.20;99.90
6355;DHT22;3210;48.708;9.030;2023-03-26T00:23:28;7.10;99.90
6355;DHT22;3210;48.708;9.030;2023-03-26T00:25:56;7.10;99.90
6355;DHT22;3210;48.708;9.030;2023-03-26T00:28:23;7.10;99.90
6355;DHT22;3210;48.708;9.030;2023-03-26T00:30:56;7.10;99.90
6355;DHT22;3210;48.708;9.030;2023-03-26T00:33:23;7.10;99.90
6355;DHT22;3210;48.708;9.030;2023-03-26T00:35:52;7.20;99.90
6355;DHT22;3210;48.708;9.030;2023-03-26T00:38:19;7.10;99.90
6355;DHT22;3210;48.708;9.030;2023-03-26T00:40:46;7.20;99.90
6355;DHT22;3210;48.708;9.030;2023-03-26T00:43:15;7.20;99.90
6355;DHT22;3210;48.708;9.030;2023-03-26T00:45:45;7.10;99.90
6355;DHT22;3210;48.708;9.030;2023-03-26T00:48:12;7.10;99.90
6355;DHT22;3210;48.708;9.030;2023-03-26T00:50:39;7.10;99.90
6355;DHT22;3210;48.708;9.030;2023-03-26T00:53:09;7.10;99.90
6355;DHT22;3210;48.708;9.030;2023-03-26T00:55:38;7.10;99.90
6355;DHT22;3210;48.708;9.030;2023-03-26T00:58:05;7.10;99.90
6355;DHT22;3210;48.708;9.030;2023-03-26T01:00:36;7.10;99.90
6355;DHT22;3210;48.708;9.030;2023-03-26T01:03:05;7.00;99.90
6355;DHT22;3210;48.708;9.030;2023-03-26T01:05:42;7.00;99.90
6355;DHT22;3210;48.708;9.030;2023-03-26T01:08:24;7.00;99.90
6355;DHT22;3210;48.708;9.030;2023-03-26T01:10:53;7.20;99.90
6355;DHT22;3210;48.708;9.030;2023-03-26T01:13:30;7.20;99.90
6355;DHT22;3210;48.708;9.030;2023-03-26T01:15:57;7.10;99.90
6355;DHT22;3210;48.708;9.030;2023-03-26T01:18:28;7.00;99.90
6355;DHT22;3210;48.708;9.030;2023-03-26T01:20:59;7.10;99.90
6355;DHT22;3210;48.708;9.030;2023-03-26T01:23:39;7.10;99.90
6355;DHT22;3210;48.708;9.030;2023-03-26T01:26:15;7.00;99.90
6355;DHT22;3210;48.708;9.030;2023-03-26T01:28:48;6.90;99.90
6355;DHT22;3210;48.708;9.030;2023-03-26T01:31:21;6.80;99.90
6355;DHT22;3210;48.708;9.030;2023-03-26T01:33:57;6.60;99.90
6355;DHT22;3210;48.708;9.030;2023-03-26T01:36:28;6.50;99.90
6355;DHT22;3210;48.708;9.030;2023-03-26T01:39:00;6.40;99.90
6355;DHT22;3210;48.708;9.030;2023-03-26T01:41:37;6.30;99.90
6355;DHT22;3210;48.708;9.030;2023-03-26T01:44:09;6.30;99.90
6355;DHT22;3210;48.708;9.030;2023-03-26T01:46:42;6.40;99.90
6355;DHT22;3210;48.708;9.030;2023-03-26T01:49:09;6.40;99.90
6355;DHT22;3210;48.708;9.030;2023-03-26T01:51:38;6.30;99.90
6355;DHT22;3210;48.708;9.030;2023-03-26T01:54:08;6.40;99.90
6355;DHT22;3210;48.708;9.030;2023-03-26T01:56:47;6.30;99.90
6355;DHT22;3210;48.708;9.030;2023-03-26T01:59:32;6.20;99.90
6355;DHT22;3210;48.708;9.030;2023-03-26T02:02:06;6.00;99.90
6355;DHT22;3210;48.708;9.030;2023-03-26T02:04:40;6.00;99.90
6355;DHT22;3210;48.708;9.030;2023-03-26T02:07:12;5.90;99.90
6355;DHT22;3210;48.708;9.030;2023-03-26T02:09:44;5.70;99.90
6355;DHT22;3210;48.708;9.030;2023-03-26T02:12:16;5.60;99.90
6355;DHT22;3210;48.708;9.030;2023-03-26T02:14:43;5.70;99.90
6355;DHT22;3210;48.708;9.030;2023-03-26T02:17:10;5.80;99.90
6355;DHT22;3210;48.708;9.030;2023-03-26T02:19:37;5.90;99.90
6355;DHT22;3210;48.708;9.030;2023-03-26T02:22:06;6.00;99.90
6355;DHT22;3210;48.708;9.030;2023-03-26T02:24:36;6.10;99.90
6355;DHT22;3210;48.708;9.030;2023-03-26T02:27:03;6.20;99.90
6355;DHT22;3210;48.708;9.030;2023-03-26T02:29:33;6.50;99.90
6355;DHT22;3210;48.708;9.030;2023-03-26T02:32:02;6.60;99.90
6355;DHT22;3210;48.708;9.030;2023-03-26T02:34:29;6.50;99.90
6355;DHT22;3210;48.708;9.030;2023-03-26T02:36:56;6.60;99.90
6355;DHT22;3210;48.708;9.030;2023-03-26T02:39:24;6.70;99.90
6355;DHT22;3210;48.708;9.030;2023-03-26T02:41:51;6.60;99.90
6355;DHT22;3210;48.708;9.030;2023-03-26T02:44:17;6.60;99.90
6355;DHT22;3210;48.708;9.030;2023-03-26T02:46:46;6.50;99.90
6355;DHT22;3210;48.708;9.030;2023-03-26T02:49:13;6.60;99.90
6355;DHT22;3210;48.708;9.030;2023-03-26T02:51:40;6.60;99.90
6355;DHT22;3210;48.708;9.030;2023-03-26T02:54:07;6.50;99.90
6355;DHT22;3210;48.708;9.030;2023-03-26T02:56:34;6.50;99.90
6355;DHT22;3210;48.708;9.030;2023-03-26T02:59:01;6.60;99.90
6355;DHT22;3210;48.708;9.030;2023-03-26T03:01:27;6.50;99.90
6355;DHT22;3210;48.708;9.030;2023-03-26T03:03:56;6.40;99.90
6355;DHT22;3210;48.708;9.030;2023-03-26T03:06:23;6.30;99.90
6355;DHT22;3210;48.708;9.030;2023-03-26T03:08:50;6.30;99.90
6355;DHT22;3210;48.708;9.030;2023-03-26T03:11:18;6.20;99.90
6355;DHT22;3210;48.708;9.030;2023-03-26T03:13:48;6.10;99.90
6355;DHT22;3210;48.708;9.030;2023-03-26T03:16:15;6.10;99.90
6355;DHT22;3210;48.708;9.030;2023-03-26T03:18:42;5.80;99.90
6355;DHT22;3210;48.708;9.030;2023-03-26T03:21:10;5.70;99.90
6355;DHT22;3210;48.708;9.030;2023-03-26T03:23:37;5.80;99.90
6355;DHT22;3210;48.708;9.030;2023-03-26T03:26:04;5.70;99.90
6355;DHT22;3210;48.708;9.030;2023-03-26T03:28:34;5.60;99.90
6355;DHT22;3210;48.708;9.030;2023-03-26T03:31:01;5.50;99.90
6355;DHT22;3210;48.708;9.030;2023-03-26T03:33:29;5.50;99.90
6355;DHT22;3210;48.708;9.030;2023-03-26T03:35:56;5.40;1.00
6355;DHT22;3210;48.708;9.030;2023-03-26T03:38:25;5.60;1.00
6355;DHT22;3210;48.708;9.030;2023-03-26T03:40:51;5.70;1.00
6355;DHT22;3210;48.708;9.030;2023-03-26T03:43:19;5.60;99.90
6355;DHT22;3210;48.708;9.030;2023-03-26T03:45:46;5.50;1.00
6355;DHT22;3210;48.708;9.030;2023-03-26T03:48:13;5.50;1.00
6355;DHT22;3210;48.708;9.030;2023-03-26T03:50:40;5.60;1.00
6355;DHT22;3210;48.708;9.030;2023-03-26T03:53:06;5.60;1.00
6355;DHT22;3210;48.708;9.030;2023-03-26T03:55:34;5.80;1.00
6355;DHT22;3210;48.708;9.030;2023-03-26T03:58:02;5.60;99.90
6355;DHT22;3210;48.708;9.030;2023-03-26T04:00:30;5.60;99.90
6355;DHT22;3210;48.708;9.030;2023-03-26T04:02:57;5.50;1.00
6355;DHT22;3210;48.708;9.030;2023-03-26T04:05:23;5.50;1.00
6355;DHT22;3210;48.708;9.030;2023-03-26T04:07:50;5.40;1.00
6355;DHT22;3210;48.708;9.030;2023-03-26T04:10:17;5.40;1.00
6355;DHT22;3210;48.708;9.030;2023-03-26T04:12:45;5.40;1.00
6355;DHT22;3210;48.708;9.030;2023-03-26T04:15:12;5.50;1.00
6355;DHT22;3210;48.708;9.030;2023-03-26T04:17:38;5.50;1.00
6355;DHT22;3210;48.708;9.030;2023-03-26T04:20:08;5.60;1.00
6355;DHT22;3210;48.708;9.030;2023-03-26T04:22:39;5.60;1.00
6355;DHT22;3210;48.708;9.030;2023-03-26T04:25:07;5.60;1.00
6355;DHT22;3210;48.708;9.030;2023-03-26T04:27:34;5.60;1.00
6355;DHT22;3210;48.708;9.030;2023-03-26T04:30:03;5.50;1.00
6355;DHT22;3210;48.708;9.030;2023-03-26T04:32:31;5.50;1.00
6355;DHT22;3210;48.708;9.030;2023-03-26T04:35:00;5.50;1.00
6355;DHT22;3210;48.708;9.030;2023-03-26T04:37:30;5.50;1.00
6355;DHT22;3210;48.708;9.030;2023-03-26T04:39:58;5.50;1.00
6355;DHT22;3210;48.708;9.030;2023-03-26T04:42:25;5.50;1.00
6355;DHT22;3210;48.708;9.030;2023-03-26T04:44:53;5.50;1.00
6355;DHT22;3210;48.708;9.030;2023-03-26T04:47:21;5.60;1.00
6355;DHT22;3210;48.708;9.030;2023-03-26T04:49:48;5.60;1.00
6355;DHT22;3210;48.708;9.030;2023-03-26T04:52:15;5.60;1.00
6355;DHT22;3210;48.708;9.030;2023-03-26T04:54:43;5.60;99.90
6355;DHT22;3210;48.708;9.030;2023-03-26T04:57:14;5.70;1.00
6355;DHT22;3210;48.708;9.030;2023-03-26T04:59:42;5.60;1.00
6355;DHT22;3210;48.708;9.030;2023-03-26T05:02:10;5.70;1.00
6355;DHT22;3210;48.708;9.030;2023-03-26T05:04:39;5.60;1.00
6355;DHT22;3210;48.708;9.030;2023-03-26T05:07:09;5.70;1.00
6355;DHT22;3210;48.708;9.030;2023-03-26T05:09:36;5.60;1.00
6355;DHT22;3210;48.708;9.030;2023-03-26T05:12:03;5.70;1.00
6355;DHT22;3210;48.708;9.030;2023-03-26T05:14:30;5.70;1.00
6355;DHT22;3210;48.708;9.030;2023-03-26T05:16:56;5.70;1.00
6355;DHT22;3210;48.708;9.030;2023-03-26T05:19:23;5.60;1.00
6355;DHT22;3210;48.708;9.030;2023-03-26T05:21:51;5.60;1.00
6355;DHT22;3210;48.708;9.030;2023-03-26T05:24:18;5.70;1.00
6355;DHT22;3210;48.708;9.030;2023-03-26T05:26:45;5.70;1.00
6355;DHT22;3210;48.708;9.030;2023-03-26T05:29:12;5.70;1.00
6355;DHT22;3210;48.708;9.030;2023-03-26T05:31:40;5.70;1.00
6355;DHT22;3210;48.708;9.030;2023-03-26T05:34:07;5.80;1.00
6355;DHT22;3210;48.708;9.030;2023-03-26T05:36:34;5.80;1.00
6355;DHT22;3210;48.708;9.030;2023-03-26T05:39:02;5.80;1.00
6355;DHT22;3210;48.708;9.030;2023-03-26T05:41:29;5.70;1.00
6355;DHT22;3210;48.708;9.030;2023-03-26T05:43:56;5.80;1.00
6355;DHT22;3210;48.708;9.030;2023-03-26T05:46:23;5.70;1.00
6355;DHT22;3210;48.708;9.030;2023-03-26T05:48:49;5.70;1.00
6355;DHT22;3210;48.708;9.030;2023-03-26T05:51:17;5.60;1.00
6355;DHT22;3210;48.708;9.030;2023-03-26T05:53:43;5.60;1.00
6355;DHT22;3210;48.708;9.030;2023-03-26T05:56:11;5.60;99.90
6355;DHT22;3210;48.708;9.030;2023-03-26T05:58:38;5.70;99.90
6355;DHT22;3210;48.708;9.030;2023-03-26T06:01:08;5.80;99.90
6355;DHT22;3210;48.708;9.030;2023-03-26T06:03:36;5.80;99.90
6355;DHT22;3210;48.708;9.030;2023-03-26T06:06:07;5.80;99.90
6355;DHT22;3210;48.708;9.030;2023-03-26T06:08:34;5.90;99.90
6355;DHT22;3210;48.708;9.030;2023-03-26T06:11:02;6.10;99.90
6355;DHT22;3210;48.708;9.030;2023-03-26T06:13:30;6.20;99.90
6355;DHT22;3210;48.708;9.030;2023-03-26T06:15:57;6.20;99.90
6355;DHT22;3210;48.708;9.030;2023-03-26T06:18:24;6.20;99.90
6355;DHT22;3210;48.708;9.030;2023-03-26T06:20:51;6.30;99.90
6355;DHT22;3210;48.708;9.030;2023-03-26T06:23:18;6.30;99.90
6355;DHT22;3210;48.708;9.030;2023-03-26T06:25:47;6.40;99.90
6355;DHT22;3210;48.708;9.030;2023-03-26T06:28:14;6.40;99.90
6355;DHT22;3210;48.708;9.030;2023-03-26T06:30:43;6.50;99.90
6355;DHT22;3210;48.708;9.030;2023-03-26T06:33:09;6.50;99.90
6355;DHT22;3210;48.708;9.030;2023-03-26T06:35:36;6.60;99.90
6355;DHT22;3210;48.708;9.030;2023-03-26T06:38:03;6.60;99.90
6355;DHT22;3210;48.708;9.030;2023-03-26T06:40:32;6.70;99.90
6355;DHT22;3210;48.708;9.030;2023-03-26T06:42:58;6.80;78.50
6355;DHT22;3210;48.708;9.030;2023-03-26T06:45:26;7.00;31.00
6355;DHT22;3210;48.708;9.030;2023-03-26T06:47:54;7.10;21.80
6355;DHT22;3210;48.708;9.030;2023-03-26T06:50:20;7.10;28.20
6355;DHT22;3210;48.708;9.030;2023-03-26T06:52:47;7.00;23.40
6355;DHT22;3210;48.708;9.030;2023-03-26T06:55:15;7.00;25.20
6355;DHT22;3210;48.708;9.030;2023-03-26T06:57:42;7.00;22.10
6355;DHT22;3210;48.708;9.030;2023-03-26T07:00:10;6.90;36.20
6355;DHT22;3210;48.708;9.030;2023-03-26T07:02:38;6.90;35.90
6355;DHT22;3210;48.708;9.030;2023-03-26T07:05:06;6.90;29.70
6355;DHT22;3210;48.708;9.030;2023-03-26T07:07:33;6.90;32.00
6355;DHT22;3210;48.708;9.030;2023-03-26T07:10:00;7.00;30.50
6355;DHT22;3210;48.708;9.030;2023-03-26T07:12:27;6.90;50.00
6355;DHT22;3210;48.708;9.030;2023-03-26T07:14:54;6.90;43.70
6355;DHT22;3210;48.708;9.030;2023-03-26T07:17:20;7.10;38.00
6355;DHT22;3210;48.708;9.030;2023-03-26T07:19:47;7.00;41.90
6355;DHT22;3210;48.708;9.030;2023-03-26T07:22:19;7.00;54.30
6355;DHT22;3210;48.708;9.030;2023-03-26T07:24:47;7.00;57.80
6355;DHT22;3210;48.708;9.030;2023-03-26T07:27:27;6.80;92.90
6355;DHT22;3210;48.708;9.030;2023-03-26T07:30:03;6.80;99.90
6355;DHT22;3210;48.708;9.030;2023-03-26T07:32:35;6.90;99.90
6355;DHT22;3210;48.708;9.030;2023-03-26T07:35:11;6.80;99.90
6355;DHT22;3210;48.708;9.030;2023-03-26T07:37:47;6.70;99.90
6355;DHT22;3210;48.708;9.030;2023-03-26T07:40:27;6.60;99.90
6355;DHT22;3210;48.708;9.030;2023-03-26T07:43:06;6.60;99.90
6355;DHT22;3210;48.708;9.030;2023-03-26T07:45:42;6.60;99.90
6355;DHT22;3210;48.708;9.030;2023-03-26T07:48:13;6.40;99.90
6355;DHT22;3210;48.708;9.030;2023-03-26T07:50:42;6.40;99.90
6355;DHT22;3210;48.708;9.030;2023-03-26T07:53:10;6.50;99.90
6355;DHT22;3210;48.708;9.030;2023-03-26T07:55:43;6.60;99.90
6355;DHT22;3210;48.708;9.030;2023-03-26T07:58:28;6.50;99.90
6355;DHT22;3210;48.708;9.030;2023-03-26T08:01:01;6.50;99.90
6355;DHT22;3210;48.708;9.030;2023-03-26T08:03:54;6.40;99.90
6355;DHT22;3210;48.708;9.030;2023-03-26T08:06:26;6.50;1.00
6355;DHT22;3210;48.708;9.030;2023-03-26T08:09:01;6.50;1.00
6355;DHT22;3210;48.708;9.030;2023-03-26T08:11:36;6.60;99.90
6355;DHT22;3210;48.708;9.030;2023-03-26T08:14:19;6.50;99.90
6355;DHT22;3210;48.708;9.030;2023-03-26T08:16:53;6.40;99.90
6355;DHT22;3210;48.708;9.030;2023-03-26T08:19:33;6.40;1.00
6355;DHT22;3210;48.708;9.030;2023-03-26T08:22:11;6.60;1.00
6355;DHT22;3210;48.708;9.030;2023-03-26T08:24:45;6.50;1.00
6355;DHT22;3210;48.708;9.030;2023-03-26T08:27:22;6.50;1.00
6355;DHT22;3210;48.708;9.030;2023-03-26T08:29:57;6.60;1.00
6355;DHT22;3210;48.708;9.030;2023-03-26T08:32:27;6.70;1.00
6355;DHT22;3210;48.708;9.030;2023-03-26T08:34:54;6.60;1.00
6355;DHT22;3210;48.708;9.030;2023-03-26T08:37:21;6.70;1.00
6355;DHT22;3210;48.708;9.030;2023-03-26T08:39:50;6.80;1.00
6355;DHT22;3210;48.708;9.030;2023-03-26T08:42:56;6.80;1.00
6355;DHT22;3210;48.708;9.030;2023-03-26T08:54:53;7.70;1.00
6355;DHT22;3210;48.708;9.030;2023-03-26T09:00:39;7.90;99.90
6355;DHT22;3210;48.708;9.030;2023-03-26T09:12:28;8.50;99.90
6355;DHT22;3210;48.708;9.030;2023-03-26T09:15:37;8.70;99.90
6355;DHT22;3210;48.708;9.030;2023-03-26T09:18:53;8.80;99.90
6355;DHT22;3210;48.708;9.030;2023-03-26T09:21:42;8.90;99.90
6355;DHT22;3210;48.708;9.030;2023-03-26T09:24:40;9.10;99.90
6355;DHT22;3210;48.708;9.030;2023-03-26T09:27:23;9.00;99.90
6355;DHT22;3210;48.708;9.030;2023-03-26T09:30:21;9.10;99.90
6355;DHT22;3210;48.708;9.030;2023-03-26T09:36:19;9.30;99.90
6355;DHT22;3210;48.708;9.030;2023-03-26T09:38:51;9.60;99.90
6355;DHT22;3210;48.708;9.030;2023-03-26T09:41:34;9.80;99.90
6355;DHT22;3210;48.708;9.030;2023-03-26T09:44:32;10.10;99.90
6355;DHT22;3210;48.708;9.030;2023-03-26T09:50:28;10.80;99.10
6355;DHT22;3210;48.708;9.030;2023-03-26T09:53:14;11.10;72.60
6355;DHT22;3210;48.708;9.030;2023-03-26T09:55:49;11.00;41.80
6355;DHT22;3210;48.708;9.030;2023-03-26T09:58:31;11.00;54.60
6355;DHT22;3210;48.708;9.030;2023-03-26T10:01:06;11.10;50.90
6355;DHT22;3210;48.708;9.030;2023-03-26T10:03:44;11.10;37.70
6355;DHT22;3210;48.708;9.030;2023-03-26T10:06:35;10.90;32.50
6355;DHT22;3210;48.708;9.030;2023-03-26T10:09:12;10.70;32.50
6355;DHT22;3210;48.708;9.030;2023-03-26T10:11:55;10.80;24.70
6355;DHT22;3210;48.708;9.030;2023-03-26T10:14:27;11.10;26.70
6355;DHT22;3210;48.708;9.030;2023-03-26T10:17:05;11.50;19.30
6355;DHT22;3210;48.708;9.030;2023-03-26T10:19:55;12.00;37.80
6355;DHT22;3210;48.708;9.030;2023-03-26T10:22:39;12.10;1.00
6355;DHT22;3210;48.708;9.030;2023-03-26T10:25:28;11.90;1.00
6355;DHT22;3210;48.708;9.030;2023-03-26T10:28:08;11.60;1.00
6355;DHT22;3210;48.708;9.030;2023-03-26T10:31:03;11.20;1.00
6355;DHT22;3210;48.708;9.030;2023-03-26T10:33:38;11.10;1.00
6355;DHT22;3210;48.708;9.030;2023-03-26T10:36:22;10.90;1.00
6355;DHT22;3210;48.708;9.030;2023-03-26T10:39:07;11.10;1.00
6355;DHT22;3210;48.708;9.030;2023-03-26T10:41:42;11.30;1.00
6355;DHT22;3210;48.708;9.030;2023-03-26T10:44:38;11.40;1.00
6355;DHT22;3210;48.708;9.030;2023-03-26T10:47:17;11.60;1.00
6355;DHT22;3210;48.708;9.030;2023-03-26T10:50:03;11.70;1.00
6355;DHT22;3210;48.708;9.030;2023-03-26T10:52:46;11.90;1.00
6355;DHT22;3210;48.708;9.030;2023-03-26T10:55:18;12.10;1.00
6355;DHT22;3210;48.708;9.030;2023-03-26T10:57:48;11.90;1.00
6355;DHT22;3210;48.708;9.030;2023-03-26T11:00:19;11.90;1.00
6355;DHT22;3210;48.708;9.030;2023-03-26T11:03:01;12.20;1.00
6355;DHT22;3210;48.708;9.030;2023-03-26T11:05:45;12.40;1.00
6355;DHT22;3210;48.708;9.030;2023-03-26T11:08:20;12.10;1.00
6355;DHT22;3210;48.708;9.030;2023-03-26T11:10:55;12.50;1.00
6355;DHT22;3210;48.708;9.030;2023-03-26T11:13:38;12.50;1.00
6355;DHT22;3210;48.708;9.030;2023-03-26T11:16:11;12.70;1.00
6355;DHT22;3210;48.708;9.030;2023-03-26T11:18:43;12.90;1.00
6355;DHT22;3210;48.708;9.030;2023-03-26T11:21:19;13.00;1.00
6355;DHT22;3210;48.708;9.030;2023-03-26T11:23:58;12.90;1.00
6355;DHT22;3210;48.708;9.030;2023-03-26T11:26:29;12.80;1.00
6355;DHT22;3210;48.708;9.030;2023-03-26T11:29:17;13.00;1.00
6355;DHT22;3210;48.708;9.030;2023-03-26T11:31:52;13.20;1.00
6355;DHT22;3210;48.708;9.030;2023-03-26T11:34:27;13.20;1.00
6355;DHT22;3210;48.708;9.030;2023-03-26T11:36:58;13.30;1.00
6355;DHT22;3210;48.708;9.030;2023-03-26T11:39:31;13.40;1.00
6355;DHT22;3210;48.708;9.030;2023-03-26T11:42:04;13.30;1.00
6355;DHT22;3210;48.708;9.030;2023-03-26T11:44:36;13.40;1.00
6355;DHT22;3210;48.708;9.030;2023-03-26T11:47:06;13.30;1.00
6355;DHT22;3210;48.708;9.030;2023-03-26T11:49:37;13.40;1.00
6355;DHT22;3210;48.708;9.030;2023-03-26T11:52:05;13.40;1.00
6355;DHT22;3210;48.708;9.030;2023-03-26T11:54:33;13.30;1.00
6355;DHT22;3210;48.708;9.030;2023-03-26T11:57:03;13.30;1.00
6355;DHT22;3210;48.708;9.030;2023-03-26T11:59:34;13.50;1.00
6355;DHT22;3210;48.708;9.030;2023-03-26T12:02:17;13.50;1.00
6355;DHT22;3210;48.708;9.030;2023-03-26T12:04:50;13.40;1.00
6355;DHT22;3210;48.708;9.030;2023-03-26T12:07:20;13.30;1.00
6355;DHT22;3210;48.708;9.030;2023-03-26T12:09:54;13.40;1.00
6355;DHT22;3210;48.708;9.030;2023-03-26T12:12:24;13.50;1.00
6355;DHT22;3210;48.708;9.030;2023-03-26T12:14:51;13.30;1.00
6355;DHT22;3210;48.708;9.030;2023-03-26T12:17:27;13.30;1.00
6355;DHT22;3210;48.708;9.030;2023-03-26T12:19:55;13.20;1.00
6355;DHT22;3210;48.708;9.030;2023-03-26T12:22:32;13.30;1.00
6355;DHT22;3210;48.708;9.030;2023-03-26T12:25:13;13.20;1.00
6355;DHT22;3210;48.708;9.030;2023-03-26T12:27:42;13.10;1.00
6355;DHT22;3210;48.708;9.030;2023-03-26T12:30:17;13.20;1.00
6355;DHT22;3210;48.708;9.030;2023-03-26T12:32:46;13.10;1.00
6355;DHT22;3210;48.708;9.030;2023-03-26T12:35:15;13.40;1.00
6355;DHT22;3210;48.708;9.030;2023-03-26T12:37:44;13.70;1.00
6355;DHT22;3210;48.708;9.030;2023-03-26T12:40:28;13.80;1.00
6355;DHT22;3210;48.708;9.030;2023-03-26T12:42:57;13.80;1.00
6355;DHT22;3210;48.708;9.030;2023-03-26T12:45:29;13.90;1.00
6355;DHT22;3210;48.708;9.030;2023-03-26T12:47:56;13.90;1.00
6355;DHT22;3210;48.708;9.030;2023-03-26T12:50:28;13.80;1.00
6355;DHT22;3210;48.708;9.030;2023-03-26T12:53:12;13.80;1.00
6355;DHT22;3210;48.708;9.030;2023-03-26T12:55:52;13.90;1.00
6355;DHT22;3210;48.708;9.030;2023-03-26T12:58:49;13.80;1.00
6355;DHT22;3210;48.708;9.030;2023-03-26T13:01:27;13.80;1.00
6355;DHT22;3210;48.708;9.030;2023-03-26T13:04:23;13.60;1.00
6355;DHT22;3210;48.708;9.030;2023-03-26T13:06:53;13.60;1.00
6355;DHT22;3210;48.708;9.030;2023-03-26T13:09:31;13.70;1.00
6355;DHT22;3210;48.708;9.030;2023-03-26T13:12:10;13.80;1.00
6355;DHT22;3210;48.708;9.030;2023-03-26T13:15:02;13.80;1.00
6355;DHT22;3210;48.708;9.030;2023-03-26T13:17:35;14.00;1.00
6355;DHT22;3210;48.708;9.030;2023-03-26T13:20:07;13.90;1.00
6355;DHT22;3210;48.708;9.030;2023-03-26T13:22:43;14.00;1.00
6355;DHT22;3210;48.708;9.030;2023-03-26T13:25:20;13.90;1.00
6355;DHT22;3210;48.708;9.030;2023-03-26T13:27:58;13.80;1.00
6355;DHT22;3210;48.708;9.030;2023-03-26T13:30:32;13.80;1.00
6355;DHT22;3210;48.708;9.030;2023-03-26T13:33:11;13.70;1.00
6355;DHT22;3210;48.708;9.030;2023-03-26T13:35:48;13.60;1.00
6355;DHT22;3210;48.708;9.030;2023-03-26T13:38:28;13.40;1.00
6355;DHT22;3210;48.708;9.030;2023-03-26T13:41:00;13.30;1.00
6355;DHT22;3210;48.708;9.030;2023-03-26T13:43:35;13.20;1.00
6355;DHT22;3210;48.708;9.030;2023-03-26T13:46:09;12.90;1.00
6355;DHT22;3210;48.708;9.030;2023-03-26T13:48:44;12.70;1.00
6355;DHT22;3210;48.708;9.030;2023-03-26T13:51:17;12.70;1.00
6355;DHT22;3210;48.708;9.030;2023-03-26T13:53:51;12.80;1.00
6355;DHT22;3210;48.708;9.030;2023-03-26T13:56:23;12.90;1.00
6355;DHT22;3210;48.708;9.030;2023-03-26T13:58:56;13.00;1.00
6355;DHT22;3210;48.708;9.030;2023-03-26T14:01:28;12.80;1.00
6355;DHT22;3210;48.708;9.030;2023-03-26T14:04:01;12.90;1.00
6355;DHT22;3210;48.708;9.030;2023-03-26T14:06:43;12.80;1.00
6355;DHT22;3210;48.708;9.030;2023-03-26T14:09:18;12.60;1.00
6355;DHT22;3210;48.708;9.030;2023-03-26T14:12:00;12.50;1.00
6355;DHT22;3210;48.708;9.030;2023-03-26T14:14:37;12.10;1.00
6355;DHT22;3210;48.708;9.030;2023-03-26T14:17:14;11.60;1.00
6355;DHT22;3210;48.708;9.030;2023-03-26T14:20:08;11.00;1.00
6355;DHT22;3210;48.708;9.030;2023-03-26T14:22:45;10.30;1.00
6355;DHT22;3210;48.708;9.030;2023-03-26T14:25:24;9.80;1.00
6355;DHT22;3210;48.708;9.030;2023-03-26T14:28:02;9.40;1.00
6355;DHT22;3210;48.708;9.030;2023-03-26T14:33:42;8.90;1.00
6355;DHT22;3210;48.708;9.030;2023-03-26T14:36:17;8.70;1.00
6355;DHT22;3210;48.708;9.030;2023-03-26T14:41:51;8.50;1.00
6355;DHT22;3210;48.708;9.030;2023-03-26T14:44:45;8.40;1.00
6355;DHT22;3210;48.708;9.030;2023-03-26T14:47:23;8.40;1.00
6355;DHT22;3210;48.708;9.030;2023-03-26T14:50:22;8.50;1.00
6355;DHT22;3210;48.708;9.030;2023-03-26T14:52:59;8.70;1.00
6355;DHT22;3210;48.708;9.030;2023-03-26T14:55:44;8.80;1.00
6355;DHT22;3210;48.708;9.030;2023-03-26T15:01:51;8.80;1.00
6355;DHT22;3210;48.708;9.030;2023-03-26T15:04:46;8.80;1.00
6355;DHT22;3210;48.708;9.030;2023-03-26T15:07:50;8.90;1.00
6355;DHT22;3210;48.708;9.030;2023-03-26T15:10:53;8.90;1.00
6355;DHT22;3210;48.708;9.030;2023-03-26T15:13:38;8.90;1.00
6355;DHT22;3210;48.708;9.030;2023-03-26T15:16:11;8.80;1.00
6355;DHT22;3210;48.708;9.030;2023-03-26T15:22:41;8.30;1.00
6355;DHT22;3210;48.708;9.030;2023-03-26T15:25:47;8.00;1.00
6355;DHT22;3210;48.708;9.030;2023-03-26T15:31:44;7.50;1.00
6355;DHT22;3210;48.708;9.030;2023-03-26T15:37:43;7.30;92.30
6355;DHT22;3210;48.708;9.030;2023-03-26T15:40:30;7.10;60.30
6355;DHT22;3210;48.708;9.030;2023-03-26T15:43:05;7.10;30.00
6355;DHT22;3210;48.708;9.030;2023-03-26T15:45:35;7.10;72.70
6355;DHT22;3210;48.708;9.030;2023-03-26T15:48:19;7.00;60.20
6355;DHT22;3210;48.708;9.030;2023-03-26T15:50:58;7.00;75.40
6355;DHT22;3210;48.708;9.030;2023-03-26T15:53:34;7.00;84.10
6355;DHT22;3210;48.708;9.030;2023-03-26T15:56:13;7.00;99.90
6355;DHT22;3210;48.708;9.030;2023-03-26T15:58:48;7.10;99.90
6355;DHT22;3210;48.708;9.030;2023-03-26T16:01:27;7.10;99.90
6355;DHT22;3210;48.708;9.030;2023-03-26T16:04:09;7.10;77.40
6355;DHT22;3210;48.708;9.030;2023-03-26T16:06:48;7.00;47.80
6355;DHT22;3210;48.708;9.030;2023-03-26T16:09:49;7.10;69.90
6355;DHT22;3210;48.708;9.030;2023-03-26T16:12:31;7.20;71.20
6355;DHT22;3210;48.708;9.030;2023-03-26T16:15:20;7.20;33.60
6355;DHT22;3210;48.708;9.030;2023-03-26T16:18:24;7.20;41.90
6355;DHT22;3210;48.708;9.030;2023-03-26T16:20:52;7.20;36.50
6355;DHT22;3210;48.708;9.030;2023-03-26T16:23:26;7.20;31.30
6355;DHT22;3210;48.708;9.030;2023-03-26T16:25:57;7.30;21.30
6355;DHT22;3210;48.708;9.030;2023-03-26T16:28:31;7.20;23.10
6355;DHT22;3210;48.708;9.030;2023-03-26T16:31:29;7.30;17.10
6355;DHT22;3210;48.708;9.030;2023-03-26T16:34:25;7.30;27.70
6355;DHT22;3210;48.708;9.030;2023-03-26T16:36:53;7.40;27.40
6355;DHT22;3210;48.708;9.030;2023-03-26T16:39:22;7.20;15.40
6355;DHT22;3210;48.708;9.030;2023-03-26T16:42:21;7.10;19.60
6355;DHT22;3210;48.708;9.030;2023-03-26T16:45:09;7.00;18.60
6355;DHT22;3210;48.708;9.030;2023-03-26T16:47:45;7.10;14.70
6355;DHT22;3210;48.708;9.030;2023-03-26T16:50:20;7.00;16.80
6355;DHT22;3210;48.708;9.030;2023-03-26T16:52:56;6.90;6.60
6355;DHT22;3210;48.708;9.030;2023-03-26T16:55:34;6.90;16.80
6355;DHT22;3210;48.708;9.030;2023-03-26T16:58:14;6.90;18.00
6355;DHT22;3210;48.708;9.030;2023-03-26T17:00:46;6.90;28.40
6355;DHT22;3210;48.708;9.030;2023-03-26T17:03:30;7.00;42.90
6355;DHT22;3210;48.708;9.030;2023-03-26T17:06:03;7.00;22.50
6355;DHT22;3210;48.708;9.030;2023-03-26T17:08:37;7.00;26.60
6355;DHT22;3210;48.708;9.030;2023-03-26T17:11:18;6.90;29.80
6355;DHT22;3210;48.708;9.030;2023-03-26T17:13:54;6.90;26.40
6355;DHT22;3210;48.708;9.030;2023-03-26T17:16:32;7.00;33.70
6355;DHT22;3210;48.708;9.030;2023-03-26T17:19:03;7.00;39.70
6355;DHT22;3210;48.708;9.030;2023-03-26T17:21:44;6.90;36.50
6355;DHT22;3210;48.708;9.030;2023-03-26T17:24:22;6.90;29.90
6355;DHT22;3210;48.708;9.030;2023-03-26T17:26:57;6.90;35.50
6355;DHT22;3210;48.708;9.030;2023-03-26T17:29:36;6.90;37.20
6355;DHT22;3210;48.708;9.030;2023-03-26T17:32:10;6.90;38.30
6355;DHT22;3210;48.708;9.030;2023-03-26T17:34:54;6.90;51.20
6355;DHT22;3210;48.708;9.030;2023-03-26T17:37:42;6.90;32.60
6355;DHT22;3210;48.708;9.030;2023-03-26T17:40:30;6.80;29.30
6355;DHT22;3210;48.708;9.030;2023-03-26T17:43:11;6.80;25.60
6355;DHT22;3210;48.708;9.030;2023-03-26T17:45:40;6.70;31.60
6355;DHT22;3210;48.708;9.030;2023-03-26T17:48:13;6.70;25.40
6355;DHT22;3210;48.708;9.030;2023-03-26T17:50:47;6.60;31.80
6355;DHT22;3210;48.708;9.030;2023-03-26T17:53:18;6.60;31.90
6355;DHT22;3210;48.708;9.030;2023-03-26T17:55:47;6.50;28.60